This is the latest recevied weather packets stored in our database for station/object PY2AQN-13. If no packets are shown the sender has not sent any weather packets the latest 10 day(s).
| Time | Temp. | Humidity | Pressure | Rain* | Wind** | Luminosity | Snow |
|---|---|---|---|---|---|---|---|
| 1787454071 | 22.78° C | 54% | 1017.3 hPa | - | - | - | - |
| 1787453471 | 22.78° C | 55% | 1017.4 hPa | - | - | - | - |
| 1787452871 | 22.78° C | 54% | 1017.6 hPa | - | - | - | - |
| 1787452271 | 22.78° C | 54% | 1017.6 hPa | - | - | - | - |
| 1787451671 | 22.78° C | 54% | 1017.6 hPa | - | - | - | - |
| 1787451071 | 22.78° C | 54% | 1017.6 hPa | - | - | - | - |
| 1787450471 | 22.78° C | 54% | 1017.6 hPa | - | - | - | - |
| 1787449871 | 22.78° C | 54% | 1017.5 hPa | - | - | - | - |
| 1787449271 | 22.78° C | 54% | 1017.6 hPa | - | - | - | - |
| 1787448671 | 22.78° C | 55% | 1017.5 hPa | - | - | - | - |
| 1787448071 | 22.78° C | 55% | 1017.5 hPa | - | - | - | - |
| 1787447471 | 22.78° C | 56% | 1017.4 hPa | - | - | - | - |
| 1787446871 | 22.22° C | 57% | 1017.5 hPa | - | - | - | - |
| 1787446271 | 21.11° C | 61% | 1017.9 hPa | - | - | - | - |
| 1787445671 | 18.89° C | 66% | 1018.5 hPa | - | - | - | - |
| 1787445071 | 19.44° C | 64% | 1018.4 hPa | - | - | - | - |
| 1787444471 | 20° C | 62% | 1018.2 hPa | - | - | - | - |
| 1787443871 | 20° C | 62% | 1018.2 hPa | - | - | - | - |
| 1787443271 | 20.56° C | 61% | 1018.1 hPa | - | - | - | - |
| 1787442671 | 20.56° C | 61% | 1018 hPa | - | - | - | - |
| 1787442071 | 20.56° C | 60% | 1018 hPa | - | - | - | - |
| 1787441471 | 21.11° C | 57% | 1017.9 hPa | - | - | - | - |
| 1787440871 | 21.11° C | 56% | 1018 hPa | - | - | - | - |
| 1787440271 | 21.67° C | 53% | 1017.8 hPa | - | - | - | - |
| 1787439671 | 22.78° C | 46% | 1017.5 hPa | - | - | - | - |
* Rain since midnight (hover to see other rain measurements)
** Current wind speed in m/s (hover to see current wind gust speed)